createdAt,value
2019-05-30T00:01:22.861Z,101880.45
2019-05-30T00:03:56.013Z,101881.16
2019-05-30T00:06:28.256Z,101878.52
2019-05-30T00:09:00.524Z,101872.42
2019-05-30T00:11:32.949Z,101878.71
2019-05-30T00:14:05.069Z,101882.86
2019-05-30T00:16:36.754Z,101891.34
2019-05-30T00:19:08.571Z,101887.37
2019-05-30T00:21:41.256Z,101891.84
2019-05-30T00:24:12.998Z,101891.10
2019-05-30T00:26:44.716Z,101890.64
2019-05-30T00:29:16.538Z,101895.64
2019-05-30T00:31:48.257Z,101899.15
2019-05-30T00:34:19.987Z,101898.73
2019-05-30T00:36:51.802Z,101901.42
2019-05-30T00:39:23.518Z,101897.14
2019-05-30T00:41:56.019Z,101901.10
2019-05-30T00:44:28.236Z,101906.59
2019-05-30T00:47:00.636Z,101906.59
2019-05-30T00:49:32.748Z,101911.83
2019-05-30T00:52:05.123Z,101908.28
2019-05-30T00:54:39.603Z,101907.95
2019-05-30T00:57:11.327Z,101903.20
2019-05-30T00:59:43.153Z,101902.34
2019-05-30T01:02:14.883Z,101901.39
2019-05-30T01:04:46.603Z,101901.80
2019-05-30T01:07:18.435Z,101898.63
2019-05-30T01:09:50.145Z,101891.16
2019-05-30T01:12:21.941Z,101888.23
2019-05-30T01:14:53.716Z,101891.89
2019-05-30T01:17:25.431Z,101893.70
2019-05-30T01:19:57.164Z,101893.87
2019-05-30T01:22:29.752Z,101884.63
2019-05-30T01:25:01.670Z,101889.58
2019-05-30T01:27:33.385Z,101884.45
2019-05-30T01:30:08.449Z,101883.13
2019-05-30T01:32:40.282Z,101884.26
2019-05-30T01:35:12.333Z,101888.36
2019-05-30T01:37:44.062Z,101878.70
2019-05-30T01:40:17.594Z,101885.30
2019-05-30T01:42:49.213Z,101888.39
2019-05-30T01:45:21.005Z,101884.44
2019-05-30T01:47:52.636Z,101891.45
2019-05-30T01:50:24.531Z,101892.23
2019-05-30T01:52:56.167Z,101894.98
2019-05-30T01:55:28.831Z,101896.45
2019-05-30T01:58:01.558Z,101897.34
2019-05-30T02:00:41.581Z,101895.55
2019-05-30T02:03:13.107Z,101891.17
2019-05-30T02:05:44.827Z,101889.85
2019-05-30T02:08:16.549Z,101886.00
2019-05-30T02:10:48.363Z,101890.44
2019-05-30T02:13:20.093Z,101883.36
2019-05-30T02:15:51.814Z,101890.75
2019-05-30T02:18:23.654Z,101888.53
2019-05-30T02:20:55.366Z,101890.58
2019-05-30T02:23:27.089Z,101894.98
2019-05-30T02:26:00.093Z,101894.67
2019-05-30T02:28:31.902Z,101902.69
2019-05-30T02:31:05.258Z,101892.80
2019-05-30T02:33:36.935Z,101896.02
2019-05-30T02:36:10.968Z,101897.41
2019-05-30T02:38:42.005Z,101894.34
2019-05-30T02:41:13.720Z,101900.97
2019-05-30T02:43:45.547Z,101906.25
2019-05-30T02:46:17.258Z,101913.34
2019-05-30T02:48:58.761Z,101915.02
2019-05-30T02:51:22.295Z,101910.17
2019-05-30T02:53:54.009Z,101915.86
2019-05-30T02:56:26.705Z,101914.05
2019-05-30T02:58:58.520Z,101922.73
2019-05-30T03:01:30.137Z,101916.59
2019-05-30T03:04:03.878Z,101923.95
2019-05-30T03:06:35.918Z,101922.22
2019-05-30T03:09:10.758Z,101929.64
2019-05-30T03:11:42.206Z,101925.20
2019-05-30T03:14:19.000Z,101934.75
2019-05-30T03:16:47.877Z,101934.27
2019-05-30T03:19:19.869Z,101936.80
2019-05-30T03:21:51.927Z,101933.58
2019-05-30T03:24:23.752Z,101937.43
2019-05-30T03:26:55.537Z,101927.95
2019-05-30T03:29:27.264Z,101930.82
2019-05-30T03:32:33.831Z,101935.91
2019-05-30T03:34:33.245Z,101935.88
2019-05-30T03:37:09.330Z,101935.60
2019-05-30T03:39:38.590Z,101937.67
2019-05-30T03:42:11.775Z,101925.43
2019-05-30T03:44:43.950Z,101929.83
2019-05-30T03:47:19.092Z,101937.15
2019-05-30T03:49:52.061Z,101929.59
2019-05-30T03:52:25.798Z,101929.04
2019-05-30T03:54:57.495Z,101929.75
2019-05-30T03:57:42.209Z,101935.17
2019-05-30T04:00:38.658Z,101927.67
2019-05-30T04:03:46.453Z,101922.55
2019-05-30T04:06:23.584Z,101934.09
2019-05-30T04:08:59.900Z,101936.80
2019-05-30T04:11:41.965Z,101928.99
2019-05-30T04:14:19.380Z,101933.62
2019-05-30T04:16:50.957Z,101936.78
2019-05-30T04:19:22.797Z,101939.13
2019-05-30T04:21:54.638Z,101929.47
2019-05-30T04:24:26.397Z,101940.88
2019-05-30T04:26:58.141Z,101931.48
2019-05-30T04:29:29.871Z,101934.09
2019-05-30T04:32:02.588Z,101937.73
2019-05-30T04:34:34.295Z,101936.29
2019-05-30T04:37:06.028Z,101936.77
2019-05-30T04:39:37.858Z,101938.91
2019-05-30T04:42:11.169Z,101946.59
2019-05-30T04:44:42.907Z,101949.05
2019-05-30T04:47:15.999Z,101944.95
2019-05-30T04:49:47.947Z,101952.78
2019-05-30T04:52:23.909Z,101956.08
2019-05-30T04:54:53.011Z,101961.63
2019-05-30T04:57:26.875Z,101957.11
2019-05-30T04:59:58.073Z,101958.59
2019-05-30T05:02:29.833Z,101963.37
2019-05-30T05:05:01.563Z,101962.83
2019-05-30T05:07:34.231Z,101957.71
2019-05-30T05:10:09.414Z,101965.24
2019-05-30T05:12:41.332Z,101949.64
2019-05-30T05:15:14.320Z,101949.64
2019-05-30T05:17:46.231Z,101967.50
2019-05-30T05:20:19.367Z,101971.12
2019-05-30T05:22:51.690Z,101962.56
2019-05-30T05:25:23.644Z,101978.75
2019-05-30T05:27:55.683Z,101978.75
2019-05-30T05:30:28.678Z,101975.73
2019-05-30T05:33:00.439Z,101976.52
2019-05-30T05:35:32.164Z,101985.09
2019-05-30T05:38:03.907Z,101980.77
2019-05-30T05:40:35.731Z,101983.11
2019-05-30T05:43:07.487Z,101986.05
2019-05-30T05:45:39.211Z,101985.93
2019-05-30T05:48:10.949Z,101986.91
2019-05-30T05:50:42.760Z,101980.52
2019-05-30T05:53:14.497Z,101993.10
2019-05-30T05:55:46.225Z,101985.10
2019-05-30T05:58:19.109Z,101980.56
2019-05-30T06:00:51.289Z,101983.93
2019-05-30T06:03:24.154Z,101980.20
2019-05-30T06:05:56.487Z,101984.95
2019-05-30T06:08:28.997Z,101978.20
2019-05-30T06:11:00.824Z,101978.05
2019-05-30T06:13:32.553Z,101984.97
2019-05-30T06:16:04.721Z,101984.20
2019-05-30T06:18:36.347Z,101986.52
2019-05-30T06:21:08.179Z,101993.21
2019-05-30T06:23:39.912Z,101985.44
2019-05-30T06:26:11.640Z,101986.11
2019-05-30T06:28:43.378Z,101987.66
2019-05-30T06:31:15.225Z,101986.31
2019-05-30T06:33:46.958Z,101991.53
2019-05-30T06:36:18.865Z,101987.28
2019-05-30T06:38:51.013Z,101994.66
2019-05-30T06:41:23.527Z,101997.36
2019-05-30T06:43:55.481Z,101995.73
2019-05-30T06:46:28.294Z,101993.43
2019-05-30T06:49:00.533Z,101989.77
2019-05-30T06:51:32.271Z,101994.22
2019-05-30T06:54:04.100Z,102000.82
2019-05-30T06:56:35.830Z,101998.89
2019-05-30T06:59:07.596Z,101999.56
2019-05-30T07:01:39.302Z,102004.39
2019-05-30T07:04:11.504Z,102002.33
2019-05-30T07:06:44.045Z,101999.58
2019-05-30T07:09:15.852Z,101999.13
2019-05-30T07:11:47.891Z,101999.18
2019-05-30T07:14:21.133Z,101993.44
2019-05-30T07:16:52.965Z,101996.16
2019-05-30T07:19:25.345Z,101991.08
2019-05-30T07:21:57.408Z,101997.18
2019-05-30T07:24:29.910Z,101991.43
2019-05-30T07:27:04.198Z,101991.57
2019-05-30T07:29:36.027Z,101989.06
2019-05-30T07:32:07.861Z,101991.41
2019-05-30T07:34:39.609Z,101988.95
2019-05-30T07:37:11.343Z,101986.80
2019-05-30T07:39:43.081Z,101984.59
2019-05-30T07:42:14.804Z,101982.20
2019-05-30T07:44:46.630Z,101981.12
2019-05-30T07:47:18.365Z,101982.97
2019-05-30T07:49:50.091Z,101983.88
2019-05-30T07:52:22.284Z,101989.31
2019-05-30T07:54:53.917Z,101986.35
2019-05-30T07:57:26.137Z,101990.33
2019-05-30T07:59:58.367Z,101984.77
2019-05-30T08:02:30.111Z,101989.82
2019-05-30T08:05:01.928Z,101993.21
2019-05-30T08:07:34.982Z,101989.30
2019-05-30T08:10:09.965Z,101990.99
2019-05-30T08:12:41.748Z,101989.40
2019-05-30T08:15:14.724Z,101989.40
2019-05-30T08:17:46.552Z,101982.27
2019-05-30T08:20:20.228Z,101990.05
2019-05-30T08:22:51.853Z,101989.04
2019-05-30T08:25:23.677Z,101979.53
2019-05-30T08:27:55.406Z,101979.94
2019-05-30T08:30:28.316Z,101982.28
2019-05-30T08:33:00.508Z,101980.34
2019-05-30T08:35:46.898Z,101980.66
2019-05-30T08:38:05.772Z,101974.80
2019-05-30T08:40:37.817Z,101985.41
2019-05-30T08:43:09.921Z,101984.09
2019-05-30T08:45:41.808Z,101982.91
2019-05-30T08:48:14.773Z,101983.99
2019-05-30T08:50:46.408Z,101985.73
2019-05-30T08:53:18.612Z,101980.84
2019-05-30T08:55:50.242Z,101976.91
2019-05-30T08:58:22.079Z,101979.05
2019-05-30T09:00:53.812Z,101972.48
2019-05-30T09:03:25.542Z,101982.98
2019-05-30T09:06:03.686Z,101972.11
2019-05-30T09:08:30.606Z,101966.90
2019-05-30T09:11:02.334Z,101968.48
2019-05-30T09:13:34.163Z,101968.69
2019-05-30T09:16:06.074Z,101966.03
2019-05-30T09:18:38.556Z,101959.33
2019-05-30T09:21:11.535Z,101959.92
2019-05-30T09:23:44.015Z,101957.45
2019-05-30T09:26:15.682Z,101959.01
2019-05-30T09:28:48.301Z,101957.59
2019-05-30T09:31:21.363Z,101946.66
2019-05-30T09:33:53.100Z,101953.02
2019-05-30T09:36:24.826Z,101951.80
2019-05-30T09:38:56.668Z,101953.91
2019-05-30T09:41:28.391Z,101953.95
2019-05-30T09:44:00.121Z,101955.27
2019-05-30T09:46:31.843Z,101944.69
2019-05-30T09:49:03.653Z,101944.02
2019-05-30T09:51:35.468Z,101941.42
2019-05-30T09:54:07.259Z,101940.86
2019-05-30T09:56:38.886Z,101936.88
2019-05-30T09:59:10.718Z,101937.00
2019-05-30T10:01:43.167Z,101932.41
2019-05-30T10:04:15.771Z,101939.97
2019-05-30T10:06:48.449Z,101940.81
2019-05-30T10:09:20.496Z,101939.98
2019-05-30T10:11:53.400Z,101940.91
2019-05-30T10:14:25.529Z,101939.86
2019-05-30T10:16:58.156Z,101930.04
2019-05-30T10:19:30.314Z,101928.41
2019-05-30T10:22:02.079Z,101932.58
2019-05-30T10:24:33.807Z,101921.87
2019-05-30T10:27:05.533Z,101921.18
2019-05-30T10:29:37.646Z,101920.41
2019-05-30T10:32:09.368Z,101917.86
2019-05-30T10:34:41.102Z,101920.02
2019-05-30T10:37:12.939Z,101920.98
2019-05-30T10:39:45.681Z,101922.13
2019-05-30T10:42:18.228Z,101924.67
2019-05-30T10:44:51.863Z,101921.78
2019-05-30T10:47:23.595Z,101915.61
2019-05-30T10:49:55.429Z,101915.39
2019-05-30T10:52:27.150Z,101914.63
2019-05-30T10:54:58.889Z,101904.63
2019-05-30T10:57:30.620Z,101905.00
2019-05-30T11:00:02.618Z,101894.20
2019-05-30T11:02:34.527Z,101900.52
2019-05-30T11:05:10.658Z,101898.50
2019-05-30T11:08:06.337Z,101890.02
2019-05-30T11:10:46.732Z,101894.50
2019-05-30T11:13:19.001Z,101892.08
2019-05-30T11:15:51.721Z,101893.83
2019-05-30T11:18:23.729Z,101892.35
2019-05-30T11:20:56.411Z,101888.38
2019-05-30T11:23:28.181Z,101886.55
2019-05-30T11:25:59.926Z,101881.28
2019-05-30T11:28:31.661Z,101878.31
2019-05-30T11:31:04.808Z,101878.88
2019-05-30T11:33:37.090Z,101876.12
2019-05-30T11:36:08.817Z,101878.75
2019-05-30T11:38:40.552Z,101877.14
2019-05-30T11:41:12.385Z,101861.22
2019-05-30T11:43:44.191Z,101863.42
2019-05-30T11:46:15.826Z,101867.04
2019-05-30T11:48:47.660Z,101865.81
2019-05-30T11:51:19.390Z,101865.98
2019-05-30T11:53:51.822Z,101852.34
2019-05-30T11:56:23.496Z,101849.88
2019-05-30T11:58:55.999Z,101857.47
2019-05-30T12:01:27.638Z,101849.37
2019-05-30T12:04:00.687Z,101859.94
2019-05-30T12:06:33.995Z,101847.97
2019-05-30T12:09:08.061Z,101846.91
2019-05-30T12:11:39.619Z,101845.12
2019-05-30T12:14:11.345Z,101841.32
2019-05-30T12:16:43.083Z,101847.80
2019-05-30T12:19:14.825Z,101837.05
2019-05-30T12:21:46.554Z,101838.14
2019-05-30T12:24:18.578Z,101826.13
2019-05-30T12:26:50.414Z,101826.18
2019-05-30T12:29:22.233Z,101824.31
2019-05-30T12:31:57.565Z,101818.02
2019-05-30T12:34:27.304Z,101815.05
2019-05-30T12:36:59.047Z,101809.64
2019-05-30T12:39:32.715Z,101806.91
2019-05-30T12:42:04.727Z,101807.77
2019-05-30T12:44:37.989Z,101803.59
2019-05-30T12:47:09.706Z,101806.37
2019-05-30T12:49:42.401Z,101799.73
2019-05-30T12:52:14.136Z,101809.17
2019-05-30T12:54:45.977Z,101808.38
2019-05-30T12:57:17.721Z,101804.19
2019-05-30T12:59:49.448Z,101800.97
2019-05-30T13:02:21.198Z,101796.19
2019-05-30T13:04:52.925Z,101799.59
2019-05-30T13:07:24.784Z,101790.66
2019-05-30T13:09:57.129Z,101795.17
2019-05-30T13:12:29.162Z,101784.21
2019-05-30T13:15:01.912Z,101776.70
2019-05-30T13:17:34.241Z,101784.47
2019-05-30T13:20:10.813Z,101788.98
2019-05-30T13:22:43.593Z,101789.92
2019-05-30T13:25:18.383Z,101788.48
2019-05-30T13:27:50.144Z,101787.28
2019-05-30T13:30:22.471Z,101777.34
2019-05-30T13:32:54.718Z,101777.96
2019-05-30T13:35:28.237Z,101770.03
2019-05-30T15:36:39.338Z,101734.17
2019-05-30T15:39:11.085Z,101730.39
2019-05-30T15:41:42.808Z,101736.27
2019-05-30T15:44:15.715Z,101741.09
2019-05-30T15:46:47.907Z,101733.45
2019-05-30T15:49:20.631Z,101729.30
2019-05-30T15:51:52.670Z,101729.44
2019-05-30T15:54:24.411Z,101729.99
2019-05-30T15:56:56.214Z,101724.30
2019-05-30T15:59:27.961Z,101731.61
2019-05-30T16:01:59.721Z,101728.35
2019-05-30T16:04:31.448Z,101722.58
2019-05-30T16:07:03.203Z,101721.22
2019-05-30T16:09:46.777Z,101719.78
2019-05-30T16:12:13.007Z,101717.72
2019-05-30T16:14:49.729Z,101714.60
2019-05-30T16:17:21.824Z,101721.22
2019-05-30T16:19:53.533Z,101721.87
2019-05-30T16:22:25.570Z,101715.70
2019-05-30T16:24:57.504Z,101716.77
2019-05-30T16:27:31.323Z,101708.72
2019-05-30T16:30:03.829Z,101710.12
2019-05-30T16:32:36.062Z,101711.77
2019-05-30T16:35:09.050Z,101715.48
2019-05-30T16:37:41.022Z,101706.36
2019-05-30T16:40:14.495Z,101704.94
2019-05-30T16:42:46.555Z,101704.44
2019-05-30T16:45:24.631Z,101711.00
2019-05-30T16:47:53.664Z,101704.51
2019-05-30T16:50:27.014Z,101702.34
2019-05-30T16:53:01.335Z,101698.36
2019-05-30T16:55:33.134Z,101704.55
2019-05-30T16:58:05.198Z,101699.86
2019-05-30T17:00:36.865Z,101694.34
2019-05-30T17:03:08.746Z,101691.89
2019-05-30T17:05:40.605Z,101694.17
2019-05-30T17:08:12.470Z,101694.41
2019-05-30T17:10:44.298Z,101697.48
2019-05-30T17:13:15.941Z,101691.63
2019-05-30T17:15:48.481Z,101692.27
2019-05-30T17:18:20.304Z,101690.89
2019-05-30T17:20:52.177Z,101693.42
2019-05-30T17:23:24.854Z,101688.94
2019-05-30T17:25:57.030Z,101678.93
2019-05-30T17:28:30.096Z,101681.06
2019-05-30T17:31:02.014Z,101678.99
2019-05-30T17:33:33.859Z,101679.88
2019-05-30T17:36:06.125Z,101679.52
2019-05-30T17:38:37.893Z,101687.41
2019-05-30T17:41:09.761Z,101679.47
2019-05-30T17:43:41.951Z,101679.17
2019-05-30T17:46:13.790Z,101670.65
2019-05-30T17:48:45.837Z,101673.15
2019-05-30T17:51:19.775Z,101678.83
2019-05-30T17:53:51.504Z,101683.95
2019-05-30T17:56:23.968Z,101684.44
2019-05-30T17:58:56.078Z,101688.66
2019-05-30T18:01:30.559Z,101691.23
2019-05-30T18:04:02.505Z,101699.26
2019-05-30T18:06:34.299Z,101698.67
2019-05-30T18:09:08.406Z,101695.75
2019-05-30T18:11:39.960Z,101691.64
2019-05-30T18:14:11.816Z,101694.13
2019-05-30T18:16:44.449Z,101697.71
2019-05-30T18:19:16.173Z,101698.11
2019-05-30T18:21:47.944Z,101697.14
2019-05-30T18:24:21.435Z,101695.95
2019-05-30T18:26:53.252Z,101694.86
2019-05-30T18:29:26.045Z,101700.10
2019-05-30T18:31:59.554Z,101704.52
2019-05-30T18:34:32.786Z,101709.31
2019-05-30T18:37:05.293Z,101705.02
2019-05-30T18:39:36.934Z,101704.90
2019-05-30T18:42:08.686Z,101708.28
2019-05-30T18:44:40.442Z,101710.45
2019-05-30T18:47:12.179Z,101707.17
2019-05-30T18:49:44.019Z,101708.44
2019-05-30T18:52:17.357Z,101710.42
2019-05-30T18:54:49.306Z,101713.97
2019-05-30T18:57:21.054Z,101715.09
2019-05-30T18:59:52.907Z,101714.20
2019-05-30T19:02:25.134Z,101715.11
2019-05-30T19:04:57.120Z,101712.52
2019-05-30T19:07:37.194Z,101713.70
2019-05-30T19:10:11.543Z,101719.20
2019-05-30T19:12:43.722Z,101712.17
2019-05-30T19:15:18.031Z,101716.03
2019-05-30T19:17:52.459Z,101718.63
2019-05-30T19:20:25.551Z,101716.25
2019-05-30T19:22:57.670Z,101716.64
2019-05-30T19:25:29.971Z,101715.27
2019-05-30T19:28:02.155Z,101720.61
2019-05-30T19:30:34.889Z,101725.34
2019-05-30T19:33:08.570Z,101723.59
2019-05-30T19:35:41.530Z,101726.33
2019-05-30T19:38:15.215Z,101729.63
2019-05-30T19:40:47.187Z,101720.21
2019-05-30T19:43:18.831Z,101727.42
2019-05-30T19:45:50.766Z,101725.84
2019-05-30T19:48:23.664Z,101734.80
2019-05-30T19:50:55.423Z,101727.86
2019-05-30T19:53:28.793Z,101728.34
2019-05-30T19:56:01.448Z,101724.63
2019-05-30T19:58:33.500Z,101726.29
2019-05-30T20:01:07.671Z,101718.42
2019-05-30T20:03:45.164Z,101721.03
2019-05-30T20:06:14.747Z,101720.57
2019-05-30T20:08:55.514Z,101720.92
2019-05-30T20:11:26.684Z,101719.13
2019-05-30T20:13:58.671Z,101719.61
2019-05-30T20:16:31.391Z,101725.29
2019-05-30T20:19:04.871Z,101722.54
2019-05-30T20:21:37.790Z,101727.02
2019-05-30T20:24:10.254Z,101728.60
2019-05-30T20:26:45.584Z,101728.47
2019-05-30T20:29:21.167Z,101722.27
2019-05-30T20:31:58.658Z,101727.34
2019-05-30T20:34:31.372Z,101722.89
2019-05-30T20:37:09.626Z,101728.05
2019-05-30T20:39:50.133Z,101725.47
2019-05-30T20:42:24.667Z,101734.41
2019-05-30T20:44:56.589Z,101729.79
2019-05-30T20:47:36.021Z,101732.20
2019-05-30T20:50:10.318Z,101732.44
2019-05-30T20:52:45.592Z,101733.46
2019-05-30T20:55:18.722Z,101728.97
2019-05-30T20:57:50.351Z,101727.97
2019-05-30T21:00:25.501Z,101729.38
2019-05-30T21:02:59.898Z,101733.06
2019-05-30T21:05:31.661Z,101724.77
2019-05-30T21:08:06.152Z,101725.83
2019-05-30T21:10:41.526Z,101732.73
2019-05-30T21:13:16.734Z,101724.58
2019-05-30T21:15:50.825Z,101727.52
2019-05-30T21:18:25.292Z,101725.56
2019-05-30T21:20:57.694Z,101729.16
2019-05-30T21:23:29.639Z,101725.45
2019-05-30T21:26:01.448Z,101722.00
2019-05-30T21:28:33.105Z,101717.61
2019-05-30T21:31:04.828Z,101718.00
2019-05-30T21:33:37.519Z,101718.55
2019-05-30T21:36:09.666Z,101713.22
2019-05-30T21:38:41.947Z,101716.28
2019-05-30T21:41:13.933Z,101722.63
2019-05-30T21:43:46.790Z,101722.42
2019-05-30T21:46:19.180Z,101718.66
2019-05-30T21:48:50.916Z,101722.27
2019-05-30T21:51:22.651Z,101711.34
2019-05-30T21:53:55.735Z,101721.44
2019-05-30T21:56:27.417Z,101724.45
2019-05-30T21:59:00.016Z,101716.78
2019-05-30T22:01:34.769Z,101717.56
2019-05-30T22:04:08.139Z,101717.49
2019-05-30T22:06:40.843Z,101719.14
2019-05-30T22:09:12.797Z,101717.80
2019-05-30T22:11:45.577Z,101718.67
2019-05-30T22:14:17.870Z,101715.22
2019-05-30T22:16:50.248Z,101718.03
2019-05-30T22:19:23.016Z,101716.70
2019-05-30T22:21:54.820Z,101715.61
2019-05-30T22:24:26.982Z,101720.19
2019-05-30T22:26:58.617Z,101727.69
2019-05-30T22:29:30.373Z,101719.31
2019-05-30T22:32:02.788Z,101714.77
2019-05-30T22:34:34.528Z,101722.63
2019-05-30T22:37:06.581Z,101721.20
2019-05-30T22:39:38.622Z,101720.14
2019-05-30T22:42:10.379Z,101720.76
2019-05-30T22:44:42.101Z,101715.09
2019-05-30T22:47:13.946Z,101714.30
2019-05-30T22:49:46.700Z,101716.24
2019-05-30T22:52:18.794Z,101717.89
2019-05-30T22:54:51.225Z,101716.95
2019-05-30T22:57:23.360Z,101716.95
2019-05-30T22:59:55.199Z,101717.33
2019-05-30T23:02:26.932Z,101718.20
2019-05-30T23:04:58.669Z,101713.21
2019-05-30T23:07:30.535Z,101716.16
2019-05-30T23:10:05.774Z,101723.34
2019-05-30T23:12:37.603Z,101724.31
2019-05-30T23:15:10.542Z,101719.53
2019-05-30T23:17:42.376Z,101719.53
2019-05-30T23:20:15.970Z,101723.34
2019-05-30T23:22:48.837Z,101719.42
2019-05-30T23:25:21.904Z,101713.31
2019-05-30T23:27:53.733Z,101713.70
2019-05-30T23:30:27.066Z,101717.09
2019-05-30T23:32:58.773Z,101709.50
2019-05-30T23:35:30.511Z,101711.84
2019-05-30T23:38:02.306Z,101710.65
2019-05-30T23:40:35.619Z,101711.55
2019-05-30T23:43:07.581Z,101710.36
2019-05-30T23:45:39.395Z,101712.09
2019-05-30T23:48:11.122Z,101703.58
2019-05-30T23:50:43.023Z,101702.00
2019-05-30T23:53:14.651Z,101704.66
2019-05-30T23:55:46.481Z,101704.27
2019-05-30T23:58:18.211Z,101704.80
